EBCI

Brussels South Charleroi Airport

Brussels, Belgium
METAR EBCI 211520Z 04007KT 010V070 CAVOK 23/08 Q1019 NOSIG
Observed Flight Rules
Apr-21 @ 15:20 UTC (16 minutes ago) Visual Flight Rules
Wind Visibility Clouds
40° at 7 knots 10,000+ meters
  • Clear skies
Temperatures Readings
Current 23°C / 73°F
Dewpoint 8°C / 46°F
Humidity 38%
Altimeter 30.09" Hg
Pressure 1019 hPa
Elevation 192
METAR EBCI 211520Z 04007KT 010V070 CAVOK 23/08 Q1019 NOSIG
Observed Flight Rules
Apr-21 @ 15:20 UTC
(16 minutes ago)
VFR
Wind Visibility
40° at 7 knots 10,000+ meters
Clouds
  • Clear skies
Temperature Dewpoint
23°C / 73°F 8°C / 46°F
Humidity Altimeter Pressure
38% 30.09" Hg 1019 hPa